Weather at Pantanella Airfield [CLOSED]

Public forecast

Using degrees Celsius for public forecast. Weather courtesy of forecast.io.

Closest aviation weather report (METAR) to Pantanella Airfield

Closest report is Amendola Air Base, 4.3 nm (7.9 km) NW.

2024/05/30 01:55 (retrieved 1 hour ago)

LIBA 300155Z 17002KT 9999 FEW040 16/14 Q1010 RMK SCT SCT100 VIS MIN 9999 WIND THR11 VRB03KT WIND THR29 /////KT BLU

Closest aviation forecast (TAF) to Pantanella Airfield

Forecast is more than 6 hours old.

Closest forecast is Foggia "Gino Lisa" Airport, 12.2 nm (22.5 km) WSW.

2024/05/29 18:00 Ammendment (retrieved 9 hours ago)

TAF AMD LIBF 292123Z 2918/3018 CNL